Time;durP1;ratioP1;P1;durP2;ratioP2;P2;SDS_P1;SDS_P2;PMS_P1;PMS_P2;Temp;Humidity;BMP_temperature;BMP_pressure;BME280_temperature;BME280_humidity;BME280_pressure;Samples;Min_cycle;Max_cycle;Signal;HPM_P1;HPM_P2
2022/06/29 00:02:19;;;;;;;7.17;6.60;;;19.30;99.10;;;;;;5097319;28;20181;-49
2022/06/29 00:04:45;;;;;;;7.60;7.00;;;19.30;99.10;;;;;;5097729;28;20200;-53
2022/06/29 00:07:10;;;;;;;6.67;6.17;;;19.30;99.10;;;;;;5097418;28;20204;-53
2022/06/29 00:09:36;;;;;;;7.43;6.40;;;19.30;99.20;;;;;;5097164;28;20185;-50
2022/06/29 00:12:02;;;;;;;7.90;7.20;;;19.30;99.50;;;;;;5097566;28;20167;-50
2022/06/29 00:14:27;;;;;;;6.97;6.37;;;19.30;99.20;;;;;;5097002;28;20596;-52
2022/06/29 00:16:53;;;;;;;7.20;6.70;;;19.30;99.20;;;;;;5096227;28;20444;-50
2022/06/29 00:19:19;;;;;;;6.63;6.13;;;19.30;99.30;;;;;;5097518;28;20277;-50
2022/06/29 00:21:44;;;;;;;6.20;5.70;;;19.20;99.30;;;;;;5097035;28;20513;-50
2022/06/29 00:24:10;;;;;;;6.80;6.30;;;19.20;99.30;;;;;;5097173;28;20197;-54
2022/06/29 00:26:36;;;;;;;6.70;6.20;;;19.20;99.30;;;;;;5097105;28;20205;-52
2022/06/29 00:29:01;;;;;;;6.70;6.20;;;19.20;99.30;;;;;;5097287;28;20199;-48
2022/06/29 00:31:27;;;;;;;6.83;6.30;;;19.20;99.30;;;;;;5096541;28;20226;-51
2022/06/29 00:33:52;;;;;;;7.43;6.83;;;19.20;99.40;;;;;;5096800;28;20182;-52
2022/06/29 00:36:18;;;;;;;6.80;6.20;;;19.10;99.40;;;;;;5099857;28;20263;-50
2022/06/29 00:38:44;;;;;;;6.47;5.97;;;19.10;99.40;;;;;;5099900;28;20169;-52
2022/06/29 00:41:09;;;;;;;7.70;7.10;;;19.10;99.40;;;;;;5099214;28;20180;-51
2022/06/29 00:43:44;;;;;;;7.90;7.33;;;19.10;99.50;;;;;;5098733;28;20186;-53
2022/06/29 00:46:10;;;;;;;7.30;6.70;;;19.10;99.60;;;;;;5099552;28;20227;-48
2022/06/29 00:48:36;;;;;;;6.63;6.03;;;19.10;99.60;;;;;;5100918;28;20432;-48
2022/06/29 00:51:03;;;;;;;7.10;6.50;;;19.10;99.70;;;;;;5100823;28;20168;-49
2022/06/29 00:53:33;;;;;;;5.67;5.23;;;19.10;99.70;;;;;;5099978;28;20418;-48
2022/06/29 00:56:00;;;;;;;6.57;6.03;;;19.00;99.60;;;;;;5097228;28;20408;-47
2022/06/29 00:58:28;;;;;;;7.03;6.53;;;19.00;99.60;;;;;;5097439;28;20429;-48
2022/06/29 01:00:56;;;;;;;6.33;5.83;;;19.00;99.70;;;;;;5100056;28;20424;-48
2022/06/29 01:03:21;;;;;;;7.03;6.53;;;19.00;99.70;;;;;;5081775;28;20444;-50
2022/06/29 01:05:47;;;;;;;7.43;6.37;;;19.00;99.70;;;;;;5098403;28;20428;-50
2022/06/29 01:08:13;;;;;;;7.10;6.50;;;19.00;99.70;;;;;;5100100;28;20202;-49
2022/06/29 01:10:38;;;;;;;6.70;6.20;;;19.00;99.70;;;;;;5099810;28;20178;-51
2022/06/29 01:13:04;;;;;;;6.80;6.30;;;18.90;99.60;;;;;;5100065;28;20173;-50
2022/06/29 01:15:30;;;;;;;7.30;6.53;;;18.90;99.60;;;;;;5099428;28;20174;-52
2022/06/29 01:17:56;;;;;;;6.93;6.43;;;18.90;99.70;;;;;;5100137;28;20273;-50
2022/06/29 01:20:21;;;;;;;6.83;6.33;;;18.90;99.70;;;;;;5100063;28;20451;-48
2022/06/29 01:22:47;;;;;;;7.10;6.50;;;18.90;99.70;;;;;;5100584;28;20463;-47
2022/06/29 01:25:13;;;;;;;6.27;5.77;;;18.90;99.70;;;;;;5100263;28;20193;-49
2022/06/29 01:27:38;;;;;;;6.90;6.40;;;18.90;99.70;;;;;;5100390;28;20301;-51
2022/06/29 01:30:07;;;;;;;6.90;6.27;;;18.90;99.70;;;;;;5100377;28;20188;-48
2022/06/29 01:32:33;;;;;;;6.10;5.70;;;18.90;99.70;;;;;;5100367;28;20228;-52
2022/06/29 01:34:59;;;;;;;6.53;6.10;;;18.90;99.70;;;;;;5100243;28;20436;-48
2022/06/29 01:37:25;;;;;;;7.83;7.23;;;18.90;99.70;;;;;;5099562;28;20415;-48
2022/06/29 01:39:50;;;;;;;6.70;6.10;;;18.90;99.70;;;;;;5100438;28;20177;-47
2022/06/29 01:42:16;;;;;;;6.30;5.80;;;18.90;99.70;;;;;;5099428;28;20423;-47
2022/06/29 01:44:42;;;;;;;7.17;6.63;;;18.90;99.70;;;;;;5099744;28;20591;-46
2022/06/29 01:47:07;;;;;;;6.13;5.73;;;18.80;99.70;;;;;;5098777;28;20229;-50
2022/06/29 01:49:33;;;;;;;7.30;6.70;;;18.80;99.70;;;;;;5099419;28;20170;-48
2022/06/29 01:51:59;;;;;;;6.23;5.83;;;18.80;99.70;;;;;;5099588;28;20177;-48
2022/06/29 01:54:25;;;;;;;6.77;6.17;;;18.80;99.70;;;;;;5099557;28;20691;-50
2022/06/29 01:56:50;;;;;;;6.83;6.20;;;18.80;99.70;;;;;;5098475;28;20483;-48
2022/06/29 01:59:16;;;;;;;6.80;6.30;;;18.80;99.70;;;;;;5100083;28;20188;-52
2022/06/29 02:01:41;;;;;;;10.33;6.93;;;18.80;99.70;;;;;;5099744;28;20872;-46
2022/06/29 02:04:07;;;;;;;6.67;6.10;;;18.80;99.70;;;;;;5099492;28;20191;-48
2022/06/29 02:06:33;;;;;;;7.17;6.60;;;18.80;99.80;;;;;;5100116;28;20215;-49
2022/06/29 02:09:00;;;;;;;6.03;5.53;;;18.80;99.80;;;;;;5100089;28;20172;-51
2022/06/29 02:11:25;;;;;;;6.70;6.20;;;18.80;99.80;;;;;;5099479;28;20179;-47
2022/06/29 02:13:51;;;;;;;7.23;6.67;;;18.80;99.80;;;;;;5099566;28;20408;-47
2022/06/29 02:16:17;;;;;;;7.10;6.60;;;18.80;99.80;;;;;;5098988;28;20203;-50
2022/06/29 02:18:43;;;;;;;6.57;6.07;;;18.80;99.80;;;;;;5099290;28;20426;-48
2022/06/29 02:21:09;;;;;;;7.20;6.70;;;18.70;99.80;;;;;;5099184;28;20184;-47
2022/06/29 02:23:36;;;;;;;6.43;6.03;;;18.70;99.80;;;;;;5099337;28;20440;-47
2022/06/29 02:26:02;;;;;;;6.70;6.13;;;18.70;99.80;;;;;;5098763;28;20441;-50
2022/06/29 02:28:28;;;;;;;7.20;6.60;;;18.70;99.80;;;;;;5099284;28;20467;-49
2022/06/29 02:36:22;;;;;;;6.50;6.10;;;18.70;99.90;;;;;;5098893;28;20478;-49
2022/06/29 02:38:47;;;;;;;6.67;6.17;;;18.70;99.90;;;;;;5099114;28;20497;-47
2022/06/29 02:41:13;;;;;;;6.57;6.07;;;18.70;99.90;;;;;;5098465;28;20605;-50
2022/06/29 02:43:39;;;;;;;6.77;6.27;;;18.60;99.90;;;;;;5097389;28;20276;-50
2022/06/29 02:46:05;;;;;;;5.80;5.40;;;18.60;99.90;;;;;;5096692;28;20194;-49
2022/06/29 02:48:32;;;;;;;6.87;6.27;;;18.70;99.90;;;;;;5097897;28;20288;-48
2022/06/29 02:50:58;;;;;;;6.50;6.10;;;18.70;99.90;;;;;;5098187;28;20425;-48
2022/06/29 02:53:24;;;;;;;6.80;6.30;;;18.60;99.90;;;;;;5098475;28;20412;-47
2022/06/29 02:55:49;;;;;;;6.33;5.83;;;18.60;99.90;;;;;;5098461;28;20661;-50
2022/06/29 02:58:15;;;;;;;6.50;6.00;;;18.60;99.90;;;;;;5098040;28;20613;-50
2022/06/29 03:00:41;;;;;;;6.90;6.20;;;18.60;99.90;;;;;;5097803;28;20191;-49
2022/06/29 03:03:06;;;;;;;7.23;6.53;;;18.60;99.90;;;;;;5097701;28;20177;-49
2022/06/29 03:05:32;;;;;;;6.90;6.23;;;18.60;99.90;;;;;;5097564;28;20572;-50
2022/06/29 03:07:57;;;;;;;6.40;5.90;;;18.60;99.90;;;;;;5096119;28;20364;-46
2022/06/29 03:10:23;;;;;;;6.70;6.20;;;18.60;99.90;;;;;;5096511;28;20174;-48
2022/06/29 03:12:49;;;;;;;6.70;6.20;;;18.60;99.90;;;;;;5096392;28;20195;-50
2022/06/29 03:15:14;;;;;;;7.47;6.87;;;18.60;99.90;;;;;;5095058;28;20182;-47
2022/06/29 03:17:40;;;;;;;7.00;6.40;;;18.60;99.90;;;;;;5094382;28;20206;-53
2022/06/29 03:20:06;;;;;;;6.27;5.67;;;18.60;99.90;;;;;;5094660;28;20209;-49
2022/06/29 03:22:33;;;;;;;6.77;6.17;;;18.60;99.90;;;;;;5096008;28;20185;-51
2022/06/29 03:24:59;;;;;;;6.70;6.10;;;18.60;99.90;;;;;;5097240;28;20421;-48
2022/06/29 03:27:25;;;;;;;8.37;6.60;;;18.60;99.90;;;;;;5097379;28;20463;-46
2022/06/29 03:29:51;;;;;;;7.07;6.57;;;18.50;99.90;;;;;;5097959;28;20180;-49
2022/06/29 03:32:16;;;;;;;7.10;6.60;;;18.50;99.90;;;;;;5097776;28;20548;-47
2022/06/29 03:34:42;;;;;;;7.00;6.40;;;18.50;99.90;;;;;;5098058;28;20175;-49
2022/06/29 03:37:08;;;;;;;6.83;6.33;;;18.50;99.90;;;;;;5097513;28;20530;-53
2022/06/29 03:39:33;;;;;;;6.53;6.13;;;18.50;99.90;;;;;;5096314;28;20192;-51
2022/06/29 03:42:00;;;;;;;7.60;7.00;;;18.60;99.90;;;;;;5097131;28;20453;-50
2022/06/29 03:44:25;;;;;;;6.80;6.30;;;18.60;99.90;;;;;;5095969;28;20470;-48
2022/06/29 03:46:51;;;;;;;6.00;5.60;;;18.60;99.90;;;;;;5097314;28;20471;-51
2022/06/29 03:49:17;;;;;;;7.60;7.00;;;18.60;99.90;;;;;;5096676;28;20176;-48
2022/06/29 03:51:42;;;;;;;6.30;5.90;;;18.60;99.90;;;;;;5097323;28;20188;-47
2022/06/29 03:54:08;;;;;;;7.07;6.57;;;18.60;99.90;;;;;;5094506;28;20178;-47
2022/06/29 03:56:34;;;;;;;7.00;6.50;;;18.60;99.90;;;;;;5095296;28;20184;-50
2022/06/29 03:58:59;;;;;;;6.50;5.90;;;18.50;99.90;;;;;;5094918;28;20351;-53
2022/06/29 04:01:25;;;;;;;6.13;5.63;;;18.50;99.90;;;;;;5094569;28;20208;-49
2022/06/29 04:03:51;;;;;;;6.13;5.73;;;18.60;99.90;;;;;;5095940;28;20259;-48
2022/06/29 04:06:16;;;;;;;6.53;6.03;;;18.60;99.90;;;;;;5096037;28;20232;-49
2022/06/29 04:08:42;;;;;;;5.87;5.47;;;18.60;99.90;;;;;;5096519;28;20180;-49
2022/06/29 04:11:48;;;;;;;6.97;6.47;;;18.60;99.90;;;;;;5101096;28;20274;-50
2022/06/29 04:13:54;;;;;;;7.57;6.87;;;18.60;99.90;;;;;;5100873;28;20264;-50
2022/06/29 04:16:19;;;;;;;6.30;5.77;;;18.60;99.80;;;;;;5099968;28;20418;-49
2022/06/29 04:18:45;;;;;;;6.70;5.87;;;18.70;99.80;;;;;;5100109;28;20663;-50
2022/06/29 04:21:11;;;;;;;6.03;5.53;;;18.70;99.70;;;;;;5099632;28;20193;-49
2022/06/29 04:23:36;;;;;;;7.50;6.73;;;18.70;99.60;;;;;;5098521;28;20175;-53
2022/06/29 04:26:02;;;;;;;7.00;6.40;;;18.70;99.50;;;;;;5099957;28;20173;-48
2022/06/29 04:28:28;;;;;;;7.07;6.07;;;18.80;99.50;;;;;;5099490;28;20705;-51
2022/06/29 04:30:53;;;;;;;6.33;5.93;;;18.80;99.40;;;;;;5100017;28;20182;-56
2022/06/29 04:33:19;;;;;;;7.27;6.57;;;18.80;99.30;;;;;;5099857;28;20579;-56
2022/06/29 04:35:44;;;;;;;6.80;6.30;;;18.90;99.30;;;;;;5100507;28;20180;-54
2022/06/29 04:38:10;;;;;;;7.00;6.40;;;19.00;99.30;;;;;;5099705;28;20186;-55
2022/06/29 04:40:36;;;;;;;6.70;6.20;;;19.00;99.20;;;;;;5098841;28;20567;-53
2022/06/29 04:43:02;;;;;;;6.63;6.10;;;19.00;99.20;;;;;;5099542;28;20171;-53
2022/06/29 04:48:11;;;;;;;7.53;6.90;;;19.20;99.10;;;;;;5100776;28;20694;-56
2022/06/29 04:50:37;;;;;;;6.77;6.27;;;19.20;99.00;;;;;;5100324;28;20439;-52
2022/06/29 04:53:02;;;;;;;6.80;6.30;;;19.30;98.90;;;;;;5100225;28;20166;-52
2022/06/29 04:55:29;;;;;;;6.60;6.10;;;19.30;98.80;;;;;;5100594;28;20554;-53
2022/06/29 04:57:55;;;;;;;7.03;6.43;;;19.50;98.70;;;;;;5099670;28;20173;-54
2022/06/29 05:00:20;;;;;;;10.37;5.80;;;19.50;98.60;;;;;;5098931;28;20420;-54
2022/06/29 05:02:46;;;;;;;7.30;6.70;;;19.50;98.50;;;;;;5098354;28;20182;-52
2022/06/29 05:05:12;;;;;;;6.97;6.30;;;19.60;98.50;;;;;;5099137;28;20520;-54
2022/06/29 05:07:37;;;;;;;6.70;6.10;;;19.70;98.40;;;;;;5098811;28;20211;-53
2022/06/29 05:10:03;;;;;;;6.73;6.23;;;19.70;98.20;;;;;;5099647;28;20183;-53
2022/06/29 05:12:29;;;;;;;8.13;6.40;;;19.80;98.20;;;;;;5099944;28;20184;-53
2022/06/29 05:14:55;;;;;;;7.13;6.53;;;19.90;98.10;;;;;;5099092;28;20487;-54
2022/06/29 05:17:20;;;;;;;8.07;7.30;;;19.90;97.90;;;;;;5097308;28;20310;-53
2022/06/29 05:19:46;;;;;;;7.13;6.43;;;20.00;97.80;;;;;;5097973;28;20269;-57
2022/06/29 05:22:12;;;;;;;7.90;6.70;;;20.10;97.70;;;;;;5096713;28;20185;-55
2022/06/29 05:24:38;;;;;;;7.13;6.60;;;20.10;97.60;;;;;;5098197;28;20168;-54
2022/06/29 05:27:05;;;;;;;6.70;6.20;;;20.20;97.70;;;;;;5095643;28;20211;-52
2022/06/29 05:29:31;;;;;;;6.93;6.33;;;20.20;97.60;;;;;;5097431;28;20162;-57
2022/06/29 05:31:56;;;;;;;7.10;6.60;;;20.30;97.50;;;;;;5097470;28;20508;-56
2022/06/29 05:34:22;;;;;;;6.70;6.20;;;20.40;97.50;;;;;;5096778;28;20411;-56
2022/06/29 05:36:48;;;;;;;7.30;6.60;;;20.40;97.30;;;;;;5098396;28;20276;-53
2022/06/29 05:39:13;;;;;;;7.17;6.67;;;20.50;97.20;;;;;;5098991;28;20767;-56
2022/06/29 05:41:39;;;;;;;7.20;6.60;;;20.60;97.10;;;;;;5096865;28;20172;-54
2022/06/29 05:44:05;;;;;;;6.97;6.40;;;20.70;96.90;;;;;;5096610;28;20466;-54
2022/06/29 05:46:31;;;;;;;8.03;7.43;;;20.80;96.70;;;;;;5096151;28;20197;-53
2022/06/29 05:48:57;;;;;;;7.23;6.63;;;20.90;96.50;;;;;;5096757;28;20179;-54
2022/06/29 05:51:23;;;;;;;6.40;5.90;;;21.00;96.30;;;;;;5096861;28;20454;-55
2022/06/29 05:53:49;;;;;;;7.47;6.70;;;21.10;96.20;;;;;;5097727;28;20237;-55
2022/06/29 05:56:15;;;;;;;7.13;6.63;;;21.20;95.80;;;;;;5097206;28;20521;-52
2022/06/29 05:58:41;;;;;;;6.60;6.00;;;21.30;95.80;;;;;;5097197;28;20413;-53
2022/06/29 06:01:09;;;;;;;8.30;7.23;;;21.40;95.70;;;;;;5097095;28;20455;-54
2022/06/29 06:03:35;;;;;;;9.60;8.80;;;21.50;95.40;;;;;;5096675;28;20211;-55
2022/06/29 06:06:01;;;;;;;7.30;6.70;;;21.60;95.20;;;;;;5096688;28;20434;-53
2022/06/29 06:08:26;;;;;;;6.60;6.00;;;21.60;95.30;;;;;;5097098;28;20880;-55
2022/06/29 06:10:52;;;;;;;6.10;5.60;;;21.60;95.20;;;;;;5096663;28;20263;-55
2022/06/29 06:13:18;;;;;;;6.53;6.03;;;21.70;95.10;;;;;;5097637;28;20166;-57
2022/06/29 06:15:43;;;;;;;7.20;6.70;;;21.90;95.10;;;;;;5097617;28;20182;-54
2022/06/29 06:18:09;;;;;;;7.30;6.60;;;22.00;94.80;;;;;;5098118;28;20169;-52
2022/06/29 06:20:35;;;;;;;7.60;7.00;;;22.10;94.70;;;;;;5096938;28;20678;-54
2022/06/29 06:23:00;;;;;;;6.20;5.70;;;22.30;94.50;;;;;;5096961;28;20166;-54
2022/06/29 06:25:26;;;;;;;7.20;6.50;;;22.40;94.30;;;;;;5097167;28;20182;-59
2022/06/29 06:27:52;;;;;;;7.20;6.60;;;22.50;94.00;;;;;;5096519;28;20201;-55
2022/06/29 06:30:17;;;;;;;6.73;6.23;;;22.60;93.90;;;;;;5097172;28;20182;-54
2022/06/29 06:32:43;;;;;;;7.20;6.63;;;22.70;93.70;;;;;;5097131;28;20237;-53
2022/06/29 06:35:09;;;;;;;7.43;6.73;;;22.90;93.30;;;;;;5097954;28;20612;-55
2022/06/29 06:37:34;;;;;;;8.30;7.70;;;23.00;93.00;;;;;;5098206;28;20203;-53
2022/06/29 06:42:44;;;;;;;8.40;7.80;;;23.20;91.90;;;;;;5097868;28;20255;-55
2022/06/29 06:45:10;;;;;;;9.03;8.10;;;23.10;92.20;;;;;;5097743;28;20407;-55
2022/06/29 06:47:36;;;;;;;8.20;7.10;;;23.20;92.10;;;;;;5096371;28;20260;-54
2022/06/29 06:50:01;;;;;;;8.90;8.20;;;23.30;92.00;;;;;;5097327;28;20166;-56
2022/06/29 06:52:27;;;;;;;7.70;7.10;;;23.40;91.60;;;;;;5096980;28;20218;-52
2022/06/29 06:54:52;;;;;;;7.90;7.33;;;23.60;91.60;;;;;;5095842;28;20469;-53
2022/06/29 06:57:18;;;;;;;7.80;7.10;;;23.80;91.30;;;;;;5096820;28;20571;-54
2022/06/29 06:59:44;;;;;;;6.47;5.97;;;23.90;90.90;;;;;;5096606;28;20186;-55
2022/06/29 07:02:09;;;;;;;7.13;6.70;;;24.00;90.70;;;;;;5094173;28;20443;-52
2022/06/29 07:04:35;;;;;;;6.73;6.23;;;24.00;90.70;;;;;;5093370;28;20174;-57
2022/06/29 07:07:00;;;;;;;6.70;6.20;;;24.00;90.70;;;;;;5091953;28;20338;-54
2022/06/29 07:09:26;;;;;;;7.20;6.70;;;24.10;90.70;;;;;;5093308;28;20170;-55
2022/06/29 07:11:52;;;;;;;7.10;6.60;;;24.10;90.70;;;;;;5093447;28;20181;-55
2022/06/29 07:14:17;;;;;;;7.43;6.83;;;24.10;90.50;;;;;;5093771;28;20491;-52
2022/06/29 07:16:43;;;;;;;7.13;6.43;;;24.20;90.40;;;;;;5095088;28;20739;-54
2022/06/29 07:19:09;;;;;;;6.53;6.03;;;24.30;90.20;;;;;;5094352;28;20469;-54
2022/06/29 07:21:34;;;;;;;6.87;6.33;;;24.50;89.90;;;;;;5094684;28;20274;-54
2022/06/29 07:24:00;;;;;;;7.33;6.73;;;24.60;89.20;;;;;;5093828;28;20261;-52
2022/06/29 07:26:26;;;;;;;6.77;6.27;;;24.70;88.70;;;;;;5094137;28;20193;-52
2022/06/29 07:28:52;;;;;;;7.33;6.83;;;24.80;88.50;;;;;;5095530;28;20263;-57
2022/06/29 07:31:18;;;;;;;6.87;6.37;;;24.80;88.20;;;;;;5095419;28;20524;-55
2022/06/29 07:33:44;;;;;;;7.03;6.53;;;24.80;87.70;;;;;;5095550;28;20420;-55
2022/06/29 07:36:09;;;;;;;7.43;6.93;;;24.90;87.30;;;;;;5096628;28;20195;-57
2022/06/29 07:38:35;;;;;;;6.70;6.17;;;25.10;86.80;;;;;;5095927;28;20177;-53
2022/06/29 07:41:01;;;;;;;7.57;6.60;;;25.40;86.40;;;;;;5094837;28;20182;-54
2022/06/29 07:43:28;;;;;;;6.70;6.20;;;25.70;85.30;;;;;;5093787;28;20170;-55
2022/06/29 07:45:56;;;;;;;6.73;6.23;;;25.90;84.40;;;;;;5092905;28;20828;-57
2022/06/29 07:48:21;;;;;;;6.00;5.60;;;26.10;83.80;;;;;;5093310;28;20465;-52
2022/06/29 07:50:47;;;;;;;6.60;6.10;;;26.30;82.60;;;;;;5090845;28;20429;-56
2022/06/29 07:53:13;;;;;;;6.57;6.07;;;26.30;82.10;;;;;;5091936;28;20176;-54
2022/06/29 07:55:38;;;;;;;6.63;6.17;;;26.20;82.00;;;;;;5092877;28;20176;-53
2022/06/29 07:58:04;;;;;;;6.90;6.30;;;26.30;82.00;;;;;;5092672;28;20451;-54
2022/06/29 08:00:30;;;;;;;6.47;5.97;;;26.50;81.50;;;;;;5092746;28;20176;-53
2022/06/29 08:02:56;;;;;;;8.50;6.83;;;26.70;81.20;;;;;;5093411;28;20176;-56
2022/06/29 08:05:23;;;;;;;5.87;5.47;;;26.90;79.10;;;;;;5093276;28;20410;-54
2022/06/29 08:07:49;;;;;;;6.43;6.03;;;27.00;78.30;;;;;;5093973;28;20439;-55
2022/06/29 08:10:25;;;;;;;6.10;5.60;;;27.20;77.50;;;;;;5094521;28;20535;-44
2022/06/29 08:12:51;;;;;;;6.43;5.93;;;27.40;76.70;;;;;;5094697;28;20172;-47
2022/06/29 08:15:17;;;;;;;6.00;5.50;;;27.50;76.10;;;;;;5094691;28;20567;-47
2022/06/29 08:17:48;;;;;;;7.03;6.53;;;27.60;75.70;;;;;;5094608;28;20237;-47
2022/06/29 08:20:15;;;;;;;5.97;5.57;;;27.70;75.70;;;;;;5093637;28;20480;-46
2022/06/29 08:22:41;;;;;;;6.57;5.90;;;27.70;75.10;;;;;;5091547;28;20481;-49
2022/06/29 08:25:07;;;;;;;5.97;5.57;;;27.80;74.90;;;;;;5093518;28;20501;-45
2022/06/29 08:27:33;;;;;;;6.40;5.90;;;27.90;74.90;;;;;;5091035;28;21012;-47
2022/06/29 08:29:59;;;;;;;5.33;4.93;;;27.90;75.10;;;;;;5092808;28;20921;-48
2022/06/29 08:32:26;;;;;;;6.07;5.57;;;27.90;74.80;;;;;;5093767;28;20522;-46
2022/06/29 08:34:51;;;;;;;6.37;5.87;;;27.90;73.50;;;;;;5093364;28;20492;-48
2022/06/29 08:37:18;;;;;;;6.20;5.80;;;27.90;73.90;;;;;;5092203;28;20427;-48
2022/06/29 08:39:43;;;;;;;6.60;5.80;;;27.80;73.50;;;;;;5091555;28;20237;-49
2022/06/29 08:42:11;;;;;;;6.90;6.40;;;27.80;73.20;;;;;;5091563;28;20434;-48
2022/06/29 08:44:38;;;;;;;5.90;5.40;;;27.70;74.40;;;;;;5091774;28;20329;-46
2022/06/29 08:47:09;;;;;;;7.03;5.70;;;27.60;75.20;;;;;;5091670;28;20466;-46
2022/06/29 08:49:38;;;;;;;7.13;6.73;;;27.50;74.90;;;;;;5093103;28;20409;-45
2022/06/29 08:52:04;;;;;;;6.60;6.13;;;27.50;75.10;;;;;;5093243;28;20992;-46
2022/06/29 08:54:31;;;;;;;6.30;5.90;;;27.40;75.40;;;;;;5094099;28;20928;-47
2022/06/29 08:56:58;;;;;;;6.23;5.83;;;27.60;74.60;;;;;;5097493;28;20512;-46
2022/06/29 08:59:24;;;;;;;6.47;6.03;;;27.80;74.40;;;;;;5096826;28;20426;-45
2022/06/29 09:01:52;;;;;;;6.53;6.03;;;27.90;73.70;;;;;;5096152;28;20868;-48
2022/06/29 09:04:18;;;;;;;6.90;6.40;;;27.90;73.30;;;;;;5098069;28;20433;-46
2022/06/29 09:06:45;;;;;;;5.93;5.43;;;27.90;72.10;;;;;;5098683;28;20426;-49
2022/06/29 09:09:12;;;;;;;6.73;6.13;;;27.90;72.80;;;;;;5097971;28;20423;-46
2022/06/29 09:11:46;;;;;;;6.40;6.00;;;27.90;72.20;;;;;;5098313;28;20689;-49
2022/06/29 09:14:24;;;;;;;6.10;5.60;;;27.80;71.70;;;;;;5096091;28;20427;-49
2022/06/29 09:17:01;;;;;;;5.83;5.43;;;27.90;72.50;;;;;;5095578;28;20857;-47
2022/06/29 09:19:47;;;;;;;6.23;5.77;;;28.20;71.40;;;;;;5095991;28;20418;-50
2022/06/29 09:22:13;;;;;;;6.93;6.33;;;28.20;70.50;;;;;;5097833;28;20731;-47
2022/06/29 09:24:39;;;;;;;6.10;5.60;;;28.20;70.90;;;;;;5097160;28;20701;-45
2022/06/29 09:27:07;;;;;;;7.07;6.47;;;28.10;71.00;;;;;;5095011;28;20485;-47
2022/06/29 09:29:39;;;;;;;6.83;6.30;;;27.90;71.40;;;;;;5094500;28;20211;-47
2022/06/29 09:32:05;;;;;;;6.33;5.83;;;27.80;72.20;;;;;;5095735;28;20498;-47
2022/06/29 09:34:39;;;;;;;6.70;6.20;;;27.70;72.00;;;;;;5092727;28;20515;-46
2022/06/29 09:37:07;;;;;;;5.77;5.27;;;27.80;72.60;;;;;;5094186;28;20563;-46
2022/06/29 09:39:53;;;;;;;6.93;5.90;;;28.40;74.40;;;;;;5097023;28;20423;-47
2022/06/29 09:42:27;;;;;;;5.60;5.13;;;29.30;70.90;;;;;;5096651;28;20583;-47
2022/06/29 09:44:53;;;;;;;6.20;5.67;;;30.10;66.90;;;;;;5095406;28;20571;-45
2022/06/29 09:47:21;;;;;;;4.97;4.67;;;30.60;63.70;;;;;;5094102;28;20530;-45
2022/06/29 09:49:59;;;;;;;5.27;4.87;;;30.60;63.90;;;;;;5076273;28;20546;-46
2022/06/29 09:52:25;;;;;;;5.83;5.23;;;30.60;63.50;;;;;;5096571;28;20692;-45
2022/06/29 09:54:56;;;;;;;5.93;5.43;;;30.30;62.20;;;;;;5096105;28;20763;-45
2022/06/29 09:57:30;;;;;;;6.43;5.57;;;30.00;62.70;;;;;;5097161;28;20405;-48
2022/06/29 10:02:51;;;;;;;6.40;6.00;;;29.50;65.20;;;;;;5096271;28;20457;-56
2022/06/29 10:05:22;;;;;;;6.00;5.50;;;29.20;66.30;;;;;;5095909;28;20735;-48
2022/06/29 10:07:50;;;;;;;5.93;5.53;;;29.00;65.90;;;;;;5094575;28;20217;-50
2022/06/29 10:10:18;;;;;;;5.07;4.77;;;28.80;66.50;;;;;;5092889;28;20415;-46
2022/06/29 10:16:34;;;;;;;6.30;5.20;;;28.20;68.00;;;;;;5095346;28;20526;-43
2022/06/29 10:19:38;;;;;;;6.73;6.13;;;28.00;69.70;;;;;;5092698;28;20420;-46
2022/06/29 10:22:03;;;;;;;7.40;5.87;;;27.80;71.00;;;;;;5096029;28;20411;-47
2022/06/29 10:24:30;;;;;;;5.90;5.40;;;27.60;71.90;;;;;;5096661;28;20449;-47
2022/06/29 10:26:56;;;;;;;5.93;5.50;;;27.60;72.60;;;;;;5095811;28;20201;-47
2022/06/29 10:29:21;;;;;;;5.87;5.30;;;27.60;71.80;;;;;;5092519;28;20423;-47
2022/06/29 10:31:50;;;;;;;6.17;5.67;;;27.60;71.70;;;;;;5095135;28;20219;-49
2022/06/29 10:34:30;;;;;;;6.27;5.87;;;27.70;72.30;;;;;;5095032;28;20178;-46
2022/06/29 10:37:14;;;;;;;7.43;6.17;;;27.90;74.00;;;;;;5093817;28;20422;-45
2022/06/29 10:39:45;;;;;;;6.00;5.60;;;28.30;73.50;;;;;;5095319;28;20414;-48
2022/06/29 10:45:12;;;;;;;6.57;6.00;;;30.50;69.90;;;;;;5095561;28;20863;-50
2022/06/29 10:47:39;;;;;;;8.50;6.00;;;31.60;66.20;;;;;;5092952;28;20524;-47
2022/06/29 10:50:14;;;;;;;6.93;6.33;;;32.40;62.70;;;;;;5094969;28;20427;-45
2022/06/29 10:52:41;;;;;;;6.40;5.90;;;33.00;60.80;;;;;;5095135;28;20415;-46
2022/06/29 10:55:07;;;;;;;5.97;5.53;;;32.90;58.50;;;;;;5095501;28;20400;-51
2022/06/29 10:57:37;;;;;;;5.90;5.40;;;32.50;58.70;;;;;;5093878;28;20457;-46
2022/06/29 11:00:07;;;;;;;6.30;5.77;;;32.10;58.80;;;;;;5089830;28;20504;-50
2022/06/29 11:02:32;;;;;;;6.30;5.80;;;31.40;58.40;;;;;;5090829;28;20396;-46
2022/06/29 11:04:58;;;;;;;6.93;6.10;;;30.80;59.60;;;;;;5089715;28;20875;-47
2022/06/29 11:12:54;;;;;;;6.13;5.63;;;29.00;63.10;;;;;;5092012;28;20417;-44
2022/06/29 11:15:48;;;;;;;5.80;5.40;;;28.70;64.80;;;;;;5092971;28;20695;-47
2022/06/29 11:18:19;;;;;;;6.93;6.10;;;28.50;66.20;;;;;;5092295;28;20428;-45
2022/06/29 11:20:50;;;;;;;5.60;5.10;;;28.40;67.30;;;;;;5092741;28;20450;-48
2022/06/29 11:23:18;;;;;;;6.03;5.63;;;28.40;67.30;;;;;;5094393;28;20504;-47
2022/06/29 11:25:46;;;;;;;5.57;5.17;;;28.50;67.30;;;;;;5074420;28;20430;-48
2022/06/29 11:28:13;;;;;;;5.90;5.40;;;28.50;66.50;;;;;;5091423;28;20663;-47
2022/06/29 11:30:38;;;;;;;6.30;5.90;;;28.80;67.10;;;;;;5088115;28;20407;-47
2022/06/29 11:33:12;;;;;;;6.00;5.60;;;29.10;68.20;;;;;;5090196;28;20755;-47
2022/06/29 11:35:39;;;;;;;6.63;6.13;;;29.50;66.80;;;;;;5090797;28;20176;-49
2022/06/29 11:38:07;;;;;;;6.37;5.90;;;30.00;64.70;;;;;;5090459;28;20517;-47
2022/06/29 11:40:35;;;;;;;6.10;5.63;;;30.70;61.60;;;;;;5090711;28;20913;-44
2022/06/29 11:43:10;;;;;;;7.03;6.43;;;31.20;60.60;;;;;;5092540;28;20479;-45
2022/06/29 11:45:37;;;;;;;6.47;5.87;;;31.90;58.50;;;;;;5093330;28;20413;-47
2022/06/29 11:48:14;;;;;;;6.00;5.50;;;32.40;58.40;;;;;;5095654;28;20473;-48
2022/06/29 11:50:53;;;;;;;5.67;5.23;;;32.70;57.50;;;;;;5095228;28;20712;-46
2022/06/29 11:53:42;;;;;;;6.10;5.50;;;32.70;55.80;;;;;;5093236;28;20443;-47
2022/06/29 11:56:27;;;;;;;5.50;5.10;;;32.30;55.70;;;;;;5092670;28;20417;-48
2022/06/29 11:58:56;;;;;;;5.73;5.30;;;31.60;56.90;;;;;;5093256;28;20405;-45
2022/06/29 12:01:23;;;;;;;6.10;5.60;;;31.10;56.70;;;;;;5093815;28;20420;-47
2022/06/29 12:03:54;;;;;;;5.60;5.20;;;30.60;57.80;;;;;;5093757;28;20422;-48
2022/06/29 12:06:22;;;;;;;6.33;5.83;;;30.20;58.40;;;;;;5092302;28;20484;-45
2022/06/29 12:08:49;;;;;;;5.97;5.57;;;29.90;59.10;;;;;;5091570;28;20698;-46
2022/06/29 12:11:16;;;;;;;6.30;5.70;;;29.60;59.90;;;;;;5092193;28;20562;-46
2022/06/29 12:13:46;;;;;;;5.90;5.40;;;29.30;60.60;;;;;;5092882;28;20680;-46
2022/06/29 12:16:12;;;;;;;6.80;5.93;;;29.00;61.20;;;;;;5092011;28;20438;-44
2022/06/29 12:18:38;;;;;;;7.47;6.90;;;28.90;62.00;;;;;;5094711;28;20420;-47
2022/06/29 12:21:04;;;;;;;7.13;6.47;;;28.60;62.50;;;;;;5095564;28;20421;-46
2022/06/29 12:23:31;;;;;;;7.17;6.47;;;28.30;63.30;;;;;;5092492;28;20427;-48
2022/06/29 12:25:57;;;;;;;6.57;5.97;;;28.30;64.70;;;;;;5092677;28;20412;-46
2022/06/29 12:28:23;;;;;;;7.00;6.40;;;28.10;65.00;;;;;;5095274;28;20462;-45
2022/06/29 12:30:49;;;;;;;6.23;5.73;;;28.20;66.30;;;;;;5096371;28;20878;-45
2022/06/29 12:33:15;;;;;;;6.27;5.87;;;28.20;65.20;;;;;;5095627;28;20400;-42
2022/06/29 12:35:42;;;;;;;6.40;5.90;;;28.20;65.50;;;;;;5094706;28;20767;-44
2022/06/29 12:38:08;;;;;;;6.43;5.93;;;28.30;65.50;;;;;;5095907;28;20193;-45
2022/06/29 12:40:34;;;;;;;6.97;5.93;;;28.40;65.60;;;;;;5096119;28;20897;-43
2022/06/29 12:43:00;;;;;;;6.73;5.87;;;28.60;65.10;;;;;;5096747;28;20492;-43
2022/06/29 12:45:26;;;;;;;6.77;6.27;;;29.10;63.60;;;;;;5097127;28;20677;-42
2022/06/29 12:47:52;;;;;;;6.07;5.63;;;30.00;64.30;;;;;;5097228;28;20462;-45
2022/06/29 12:50:18;;;;;;;6.23;5.73;;;30.50;62.80;;;;;;5096995;28;20415;-45
2022/06/29 12:52:47;;;;;;;6.67;6.07;;;30.80;61.20;;;;;;5097514;28;20401;-46
2022/06/29 12:55:14;;;;;;;7.00;6.30;;;31.10;59.30;;;;;;5096297;28;20417;-46
2022/06/29 12:57:40;;;;;;;6.67;6.07;;;31.40;57.50;;;;;;5095414;28;20679;-44
2022/06/29 13:00:07;;;;;;;6.70;6.23;;;31.40;56.90;;;;;;5097677;28;20411;-46
2022/06/29 13:02:33;;;;;;;6.87;6.27;;;31.30;57.60;;;;;;5096868;28;20462;-45
2022/06/29 13:05:00;;;;;;;5.80;5.30;;;30.90;57.80;;;;;;5099485;28;20413;-44
2022/06/29 13:07:28;;;;;;;6.03;5.63;;;30.60;58.30;;;;;;5099143;28;20474;-47
2022/06/29 13:09:54;;;;;;;6.80;6.20;;;30.40;59.00;;;;;;5098200;28;20430;-43
2022/06/29 13:12:20;;;;;;;6.80;6.33;;;30.10;59.00;;;;;;5096351;28;20402;-47
2022/06/29 13:14:46;;;;;;;7.30;6.80;;;30.00;59.40;;;;;;5097369;28;20178;-47